• Join FlightAware (Why Join?)
  • Login
  • US Flag 
09:48AM EST


 

Airport Tracker/Info


-or-


 

Live Flight TrackerFlight Track Log ✈ DAL6035 ✈ 20-Aug-2014 ✈ KLGA - KMHT

Flight Track Log - Related Links

Times and Time Zones

All times are in EDT time to prevent confusion due to time zone crossing. See the DAL6035 flight status page for this flight to view local times or setup timezone preferences in your user account.

Time Position Orientation Groundspeed Altitude Reporting Facility
EDT Latitude Longitude Course Direction KTS MPH feet Rate Location/Type
05:34PM 40.7500 -73.8333 27° Northeast 165 190 1,700  Level New York TRACON
05:35PM 40.7500 -73.7833 90° East 228 262 3,500 2,220 Climbing New York TRACON
05:37PM 41.1159 -73.5958 28° Northeast  Level FlightAware Approximate
05:37PM 40.8425 -73.7158 29° Northeast 241 277 7,600  Level Boston Center
05:38PM 41.2016 -73.5236 33° Northeast  Level FlightAware Approximate
05:38PM 40.9014 -73.6781 26° Northeast 240 276 10,000  Level Boston Center
05:39PM 41.2879 -73.4526 27° Northeast  Level FlightAware Approximate
05:39PM 40.9692 -73.6361 25° Northeast 265 305 11,000  Level Boston Center
05:40PM 41.0708 -73.5725 25° Northeast 333 383 12,000 720 Climbing Boston Center
05:41PM 41.1597 -73.5167 25° Northeast 349 402 12,500 480 Climbing Boston Center
05:42PM 41.2478 -73.4606 26° Northeast 351 404 13,000 540 Climbing Boston Center
05:43PM 41.3433 -73.4008 25° Northeast 352 405 13,700 660 Climbing Boston Center
05:44PM 41.4328 -73.3436 26° Northeast 352 405 14,400 660 Climbing Boston Center
05:45PM 41.5181 -73.2644 35° Northeast 364 419 15,100 1,200 Climbing Boston Center
05:46PM 41.5956 -73.1617 45° Northeast 364 419 16,900 1,800 Climbing Boston Center
05:47PM 41.6803 -73.1172 21° North 335 386 18,900 1,860 Climbing Boston Center
05:48PM 41.7744 -73.1331 353° North 332 382 20,800 960 Climbing Boston Center
05:49PM 41.8694 -73.1486 353° North 332 382 21,000 60 Climbing Boston Center
05:50PM 41.9753 -73.1672 353° North 364 419 21,000  Level Boston Center
05:51PM 42.0775 -73.1842 353° North 367 422 21,000  Level Boston Center
05:52PM 42.1772 -73.2008 353° North 361 415 21,000  Level Boston Center
05:53PM 42.2761 -73.2183 353° North 357 411 21,000  Level Boston Center
05:54PM 42.3750 -73.2356 353° North 356 410 21,000  Level Boston Center
05:55PM 42.4747 -73.2533 353° North 355 409 21,000 -60 Level Boston Center
05:56PM 42.5758 -73.2686 354° North 355 409 20,900 -540 Descending Boston Center
05:57PM 42.6497 -73.1822 41° Northeast 369 425 20,000 -960 Descending Boston Center
05:58PM 42.6753 -73.0303 77° East 367 422 19,000 -780 Descending Boston Center
05:59PM 42.6939 -72.9119 78° East 357 411 18,500 -1,020 Descending Boston Center
06:00PM 42.7161 -72.7775 77° East 357 411 17,000 -1,500 Descending Boston Center
06:01PM 42.7369 -72.6472 78° East 356 410 15,500 -1,620 Descending Boston Center
06:03PM 42.7608 -72.4994 78° East 339 390 13,700 -1,620 Descending Boston Center
06:04PM 42.7803 -72.3819 77° East 322 371 12,200 -1,500 Descending Boston Center
06:05PM 42.7969 -72.2614 79° East 319 367 10,700 -1,500 Descending Boston Center
06:06PM 42.8050 -72.1431 85° East 297 342 9,100 -960 Descending Boston Center
06:07PM 42.8183 -72.0372 80° East 285 328 8,800 -900 Descending Boston Center
06:08PM 42.8617 -71.9553 54° Northeast 267 307 7,300 -1,500 Descending Boston Center
06:09PM 42.9028 -71.8689 57° Northeast 255 293 5,700 -1,500 Descending Boston Center
06:10PM 42.9414 -71.7925 55° Northeast 249 287 4,200 -840 Descending Boston Center
06:11PM 42.9831 -71.7164 53° Northeast 235 270 4,000 -540 Descending Boston Center
06:12PM 43.0122 -71.6403 62° Northeast 229 264 3,200 -540 Descending Boston Center
06:13PM 43.0386 -71.5689 63° Northeast 215 247 3,000 -600 Descending Boston Center
06:14PM 43.0328 -71.5008 97° East 190 219 2,000 -780 Descending Boston Center
06:15PM 42.9947 -71.4711 150° Southeast 159 183 1,400 -720 Descending Boston Center
06:16PM 42.9550 -71.4472 156° South 147 169 600 -540 Descending Boston Center
06:17PM 42.9253 -71.4294 156° South 145 167 400 -240 Descending Boston Center